sensor_id;sensor_type;location;lat;lon;timestamp;P1;durP1;ratioP1;P2;durP2;ratioP2
53036;SDS011;38924;52.134;4.666;2023-07-22T00:00:01;28.55;;;16.55;;
53036;SDS011;38924;52.134;4.666;2023-07-22T00:02:27;24.65;;;16.48;;
53036;SDS011;38924;52.134;4.666;2023-07-22T00:04:52;25.98;;;17.63;;
53036;SDS011;38924;52.134;4.666;2023-07-22T00:07:18;25.45;;;17.27;;
53036;SDS011;38924;52.134;4.666;2023-07-22T00:09:44;25.67;;;17.00;;
53036;SDS011;38924;52.134;4.666;2023-07-22T00:12:12;28.25;;;17.77;;
53036;SDS011;38924;52.134;4.666;2023-07-22T00:14:39;27.33;;;17.90;;
53036;SDS011;38924;52.134;4.666;2023-07-22T00:17:07;34.00;;;19.67;;
53036;SDS011;38924;52.134;4.666;2023-07-22T00:19:33;27.67;;;17.42;;
53036;SDS011;38924;52.134;4.666;2023-07-22T00:22:02;36.53;;;19.33;;
53036;SDS011;38924;52.134;4.666;2023-07-22T00:24:30;33.33;;;20.15;;
53036;SDS011;38924;52.134;4.666;2023-07-22T00:26:59;32.20;;;20.63;;
53036;SDS011;38924;52.134;4.666;2023-07-22T00:29:25;33.83;;;22.25;;
53036;SDS011;38924;52.134;4.666;2023-07-22T00:31:50;37.28;;;20.75;;
53036;SDS011;38924;52.134;4.666;2023-07-22T00:34:16;32.50;;;20.60;;
53036;SDS011;38924;52.134;4.666;2023-07-22T00:36:42;31.15;;;19.83;;
53036;SDS011;38924;52.134;4.666;2023-07-22T00:39:08;34.08;;;19.75;;
53036;SDS011;38924;52.134;4.666;2023-07-22T00:41:34;33.65;;;20.00;;
53036;SDS011;38924;52.134;4.666;2023-07-22T00:43:59;30.88;;;20.05;;
53036;SDS011;38924;52.134;4.666;2023-07-22T00:46:25;34.00;;;20.85;;
53036;SDS011;38924;52.134;4.666;2023-07-22T00:48:51;33.63;;;19.35;;
53036;SDS011;38924;52.134;4.666;2023-07-22T00:51:19;31.85;;;18.50;;
53036;SDS011;38924;52.134;4.666;2023-07-22T00:53:47;32.03;;;21.77;;
53036;SDS011;38924;52.134;4.666;2023-07-22T00:56:13;36.53;;;21.00;;
53036;SDS011;38924;52.134;4.666;2023-07-22T00:58:39;34.83;;;20.92;;
53036;SDS011;38924;52.134;4.666;2023-07-22T01:01:05;32.72;;;19.95;;
53036;SDS011;38924;52.134;4.666;2023-07-22T01:03:31;34.75;;;21.73;;
53036;SDS011;38924;52.134;4.666;2023-07-22T01:05:59;37.38;;;21.45;;
53036;SDS011;38924;52.134;4.666;2023-07-22T01:08:26;32.80;;;21.33;;
53036;SDS011;38924;52.134;4.666;2023-07-22T01:10:54;32.90;;;19.90;;
53036;SDS011;38924;52.134;4.666;2023-07-22T01:13:20;32.00;;;20.88;;
53036;SDS011;38924;52.134;4.666;2023-07-22T01:15:45;33.80;;;21.60;;
53036;SDS011;38924;52.134;4.666;2023-07-22T01:18:11;29.10;;;18.67;;
53036;SDS011;38924;52.134;4.666;2023-07-22T01:20:37;31.60;;;20.58;;
53036;SDS011;38924;52.134;4.666;2023-07-22T01:23:03;32.20;;;19.55;;
53036;SDS011;38924;52.134;4.666;2023-07-22T01:25:29;27.30;;;18.65;;
53036;SDS011;38924;52.134;4.666;2023-07-22T01:27:55;27.00;;;18.05;;
53036;SDS011;38924;52.134;4.666;2023-07-22T01:30:21;28.77;;;19.00;;
53036;SDS011;38924;52.134;4.666;2023-07-22T01:32:47;27.50;;;17.58;;
53036;SDS011;38924;52.134;4.666;2023-07-22T01:35:12;25.60;;;17.85;;
53036;SDS011;38924;52.134;4.666;2023-07-22T01:37:39;26.05;;;18.80;;
53036;SDS011;38924;52.134;4.666;2023-07-22T01:40:05;28.10;;;17.90;;
53036;SDS011;38924;52.134;4.666;2023-07-22T01:42:38;22.98;;;15.50;;
53036;SDS011;38924;52.134;4.666;2023-07-22T01:45:04;30.98;;;16.80;;
53036;SDS011;38924;52.134;4.666;2023-07-22T01:47:36;21.65;;;16.25;;
53036;SDS011;38924;52.134;4.666;2023-07-22T01:50:02;23.50;;;15.60;;
53036;SDS011;38924;52.134;4.666;2023-07-22T01:52:28;21.88;;;14.88;;
53036;SDS011;38924;52.134;4.666;2023-07-22T01:54:54;20.40;;;14.18;;
53036;SDS011;38924;52.134;4.666;2023-07-22T01:57:20;17.90;;;13.20;;
53036;SDS011;38924;52.134;4.666;2023-07-22T01:59:48;18.08;;;13.27;;
53036;SDS011;38924;52.134;4.666;2023-07-22T02:02:15;20.90;;;14.10;;
53036;SDS011;38924;52.134;4.666;2023-07-22T02:04:41;20.90;;;14.25;;
53036;SDS011;38924;52.134;4.666;2023-07-22T02:07:07;20.63;;;14.73;;
53036;SDS011;38924;52.134;4.666;2023-07-22T02:09:32;18.92;;;13.27;;
53036;SDS011;38924;52.134;4.666;2023-07-22T02:12:01;16.88;;;12.63;;
53036;SDS011;38924;52.134;4.666;2023-07-22T02:14:27;19.83;;;12.80;;
53036;SDS011;38924;52.134;4.666;2023-07-22T02:16:53;18.45;;;12.98;;
53036;SDS011;38924;52.134;4.666;2023-07-22T02:19:18;16.90;;;12.63;;
53036;SDS011;38924;52.134;4.666;2023-07-22T02:21:44;19.55;;;13.30;;
53036;SDS011;38924;52.134;4.666;2023-07-22T02:24:10;14.32;;;11.80;;
53036;SDS011;38924;52.134;4.666;2023-07-22T02:26:35;17.50;;;12.40;;
53036;SDS011;38924;52.134;4.666;2023-07-22T02:29:01;19.17;;;12.60;;
53036;SDS011;38924;52.134;4.666;2023-07-22T02:31:27;21.52;;;13.73;;
53036;SDS011;38924;52.134;4.666;2023-07-22T02:33:53;17.80;;;12.38;;
53036;SDS011;38924;52.134;4.666;2023-07-22T02:36:19;22.58;;;13.73;;
53036;SDS011;38924;52.134;4.666;2023-07-22T02:38:44;18.67;;;12.32;;
53036;SDS011;38924;52.134;4.666;2023-07-22T02:41:12;17.58;;;11.75;;
53036;SDS011;38924;52.134;4.666;2023-07-22T02:43:38;13.32;;;10.77;;
53036;SDS011;38924;52.134;4.666;2023-07-22T02:46:06;17.23;;;10.88;;
53036;SDS011;38924;52.134;4.666;2023-07-22T02:48:33;14.85;;;10.70;;
53036;SDS011;38924;52.134;4.666;2023-07-22T02:51:17;14.45;;;10.75;;
53036;SDS011;38924;52.134;4.666;2023-07-22T02:53:43;17.60;;;10.68;;
53036;SDS011;38924;52.134;4.666;2023-07-22T02:56:10;12.20;;;9.48;;
53036;SDS011;38924;52.134;4.666;2023-07-22T02:58:36;14.48;;;10.02;;
53036;SDS011;38924;52.134;4.666;2023-07-22T03:01:05;12.38;;;9.68;;
53036;SDS011;38924;52.134;4.666;2023-07-22T03:03:34;13.15;;;9.68;;
53036;SDS011;38924;52.134;4.666;2023-07-22T03:06:00;12.23;;;9.35;;
53036;SDS011;38924;52.134;4.666;2023-07-22T03:08:27;14.65;;;9.38;;
53036;SDS011;38924;52.134;4.666;2023-07-22T03:10:52;16.23;;;9.73;;
53036;SDS011;38924;52.134;4.666;2023-07-22T03:13:18;11.82;;;8.52;;
53036;SDS011;38924;52.134;4.666;2023-07-22T03:15:44;11.55;;;9.07;;
53036;SDS011;38924;52.134;4.666;2023-07-22T03:18:10;14.38;;;9.50;;
53036;SDS011;38924;52.134;4.666;2023-07-22T03:20:36;14.50;;;9.68;;
53036;SDS011;38924;52.134;4.666;2023-07-22T03:23:02;13.18;;;8.63;;
53036;SDS011;38924;52.134;4.666;2023-07-22T03:25:30;13.90;;;8.73;;
53036;SDS011;38924;52.134;4.666;2023-07-22T03:27:56;13.75;;;9.35;;
53036;SDS011;38924;52.134;4.666;2023-07-22T03:30:22;14.70;;;8.90;;
53036;SDS011;38924;52.134;4.666;2023-07-22T03:32:50;10.40;;;8.35;;
53036;SDS011;38924;52.134;4.666;2023-07-22T03:35:16;10.85;;;8.68;;
53036;SDS011;38924;52.134;4.666;2023-07-22T03:37:42;11.00;;;9.18;;
53036;SDS011;38924;52.134;4.666;2023-07-22T03:40:08;12.52;;;9.00;;
53036;SDS011;38924;52.134;4.666;2023-07-22T03:43:01;10.82;;;8.02;;
53036;SDS011;38924;52.134;4.666;2023-07-22T03:45:26;11.73;;;8.63;;
53036;SDS011;38924;52.134;4.666;2023-07-22T03:47:56;10.95;;;8.02;;
53036;SDS011;38924;52.134;4.666;2023-07-22T03:50:23;12.27;;;8.07;;
53036;SDS011;38924;52.134;4.666;2023-07-22T03:52:48;11.63;;;7.90;;
53036;SDS011;38924;52.134;4.666;2023-07-22T03:55:14;19.48;;;9.40;;
53036;SDS011;38924;52.134;4.666;2023-07-22T03:57:40;10.10;;;7.60;;
53036;SDS011;38924;52.134;4.666;2023-07-22T04:00:06;12.02;;;7.38;;
53036;SDS011;38924;52.134;4.666;2023-07-22T04:02:41;12.30;;;7.97;;
53036;SDS011;38924;52.134;4.666;2023-07-22T04:05:07;11.23;;;8.10;;
53036;SDS011;38924;52.134;4.666;2023-07-22T04:07:33;13.20;;;8.27;;
53036;SDS011;38924;52.134;4.666;2023-07-22T04:09:59;9.32;;;7.28;;
53036;SDS011;38924;52.134;4.666;2023-07-22T04:12:25;9.02;;;7.25;;
53036;SDS011;38924;52.134;4.666;2023-07-22T04:14:51;12.52;;;6.82;;
53036;SDS011;38924;52.134;4.666;2023-07-22T04:17:16;7.30;;;6.35;;
53036;SDS011;38924;52.134;4.666;2023-07-22T04:19:42;9.77;;;6.75;;
53036;SDS011;38924;52.134;4.666;2023-07-22T04:22:10;10.30;;;6.55;;
53036;SDS011;38924;52.134;4.666;2023-07-22T04:24:35;10.55;;;6.07;;
53036;SDS011;38924;52.134;4.666;2023-07-22T04:27:01;10.52;;;7.25;;
53036;SDS011;38924;52.134;4.666;2023-07-22T04:29:27;11.10;;;6.53;;
53036;SDS011;38924;52.134;4.666;2023-07-22T04:31:59;11.23;;;7.25;;
53036;SDS011;38924;52.134;4.666;2023-07-22T04:34:28;10.48;;;5.80;;
53036;SDS011;38924;52.134;4.666;2023-07-22T04:36:54;11.25;;;6.97;;
53036;SDS011;38924;52.134;4.666;2023-07-22T04:39:20;10.77;;;6.78;;
53036;SDS011;38924;52.134;4.666;2023-07-22T04:41:46;8.60;;;7.70;;
53036;SDS011;38924;52.134;4.666;2023-07-22T04:44:11;8.20;;;6.82;;
53036;SDS011;38924;52.134;4.666;2023-07-22T04:46:37;11.38;;;6.90;;
53036;SDS011;38924;52.134;4.666;2023-07-22T04:49:02;11.20;;;7.60;;
53036;SDS011;38924;52.134;4.666;2023-07-22T04:51:28;9.07;;;6.43;;
53036;SDS011;38924;52.134;4.666;2023-07-22T04:53:54;9.05;;;7.20;;
53036;SDS011;38924;52.134;4.666;2023-07-22T04:56:19;14.32;;;8.10;;
53036;SDS011;38924;52.134;4.666;2023-07-22T04:58:45;10.23;;;7.97;;
53036;SDS011;38924;52.134;4.666;2023-07-22T05:01:11;16.15;;;9.13;;
53036;SDS011;38924;52.134;4.666;2023-07-22T05:03:37;9.95;;;8.90;;
53036;SDS011;38924;52.134;4.666;2023-07-22T05:06:03;18.65;;;9.73;;
53036;SDS011;38924;52.134;4.666;2023-07-22T05:08:28;12.88;;;9.55;;
53036;SDS011;38924;52.134;4.666;2023-07-22T05:10:54;20.85;;;12.23;;
53036;SDS011;38924;52.134;4.666;2023-07-22T05:13:20;20.20;;;12.40;;
53036;SDS011;38924;52.134;4.666;2023-07-22T05:15:45;19.10;;;12.55;;
53036;SDS011;38924;52.134;4.666;2023-07-22T05:18:11;20.42;;;13.98;;
53036;SDS011;38924;52.134;4.666;2023-07-22T05:20:37;26.75;;;15.45;;
53036;SDS011;38924;52.134;4.666;2023-07-22T05:23:03;32.10;;;15.13;;
53036;SDS011;38924;52.134;4.666;2023-07-22T05:25:32;25.05;;;14.80;;
53036;SDS011;38924;52.134;4.666;2023-07-22T05:28:00;27.85;;;17.58;;
53036;SDS011;38924;52.134;4.666;2023-07-22T05:30:25;34.80;;;18.48;;
53036;SDS011;38924;52.134;4.666;2023-07-22T05:32:52;30.80;;;18.20;;
53036;SDS011;38924;52.134;4.666;2023-07-22T05:35:18;36.15;;;21.73;;
53036;SDS011;38924;52.134;4.666;2023-07-22T05:37:44;31.92;;;19.65;;
53036;SDS011;38924;52.134;4.666;2023-07-22T05:40:10;37.05;;;22.48;;
53036;SDS011;38924;52.134;4.666;2023-07-22T05:42:36;36.70;;;22.70;;
53036;SDS011;38924;52.134;4.666;2023-07-22T05:45:02;41.63;;;22.45;;
53036;SDS011;38924;52.134;4.666;2023-07-22T05:47:28;48.70;;;23.25;;
53036;SDS011;38924;52.134;4.666;2023-07-22T05:49:54;41.78;;;23.00;;
53036;SDS011;38924;52.134;4.666;2023-07-22T05:52:20;47.35;;;23.15;;
53036;SDS011;38924;52.134;4.666;2023-07-22T05:54:45;44.05;;;23.65;;
53036;SDS011;38924;52.134;4.666;2023-07-22T05:57:11;36.53;;;22.05;;
53036;SDS011;38924;52.134;4.666;2023-07-22T05:59:37;48.33;;;24.13;;
53036;SDS011;38924;52.134;4.666;2023-07-22T06:02:03;40.08;;;22.40;;
53036;SDS011;38924;52.134;4.666;2023-07-22T06:04:29;36.70;;;21.83;;
53036;SDS011;38924;52.134;4.666;2023-07-22T06:06:54;39.15;;;23.85;;
53036;SDS011;38924;52.134;4.666;2023-07-22T06:09:20;38.40;;;24.25;;
53036;SDS011;38924;52.134;4.666;2023-07-22T06:11:46;39.55;;;23.95;;
53036;SDS011;38924;52.134;4.666;2023-07-22T06:14:12;39.45;;;21.75;;
53036;SDS011;38924;52.134;4.666;2023-07-22T06:16:38;37.47;;;22.02;;
53036;SDS011;38924;52.134;4.666;2023-07-22T06:19:03;46.03;;;24.55;;
53036;SDS011;38924;52.134;4.666;2023-07-22T06:21:29;40.20;;;21.33;;
53036;SDS011;38924;52.134;4.666;2023-07-22T06:23:55;29.35;;;19.35;;
53036;SDS011;38924;52.134;4.666;2023-07-22T06:26:21;35.92;;;23.08;;
53036;SDS011;38924;52.134;4.666;2023-07-22T06:28:47;47.05;;;22.48;;
53036;SDS011;38924;52.134;4.666;2023-07-22T06:31:13;31.13;;;20.17;;
53036;SDS011;38924;52.134;4.666;2023-07-22T06:33:38;34.60;;;22.17;;
53036;SDS011;38924;52.134;4.666;2023-07-22T06:36:04;33.65;;;20.92;;
53036;SDS011;38924;52.134;4.666;2023-07-22T06:38:30;40.28;;;21.98;;
53036;SDS011;38924;52.134;4.666;2023-07-22T06:40:56;38.33;;;23.50;;
53036;SDS011;38924;52.134;4.666;2023-07-22T06:43:22;41.97;;;22.70;;
53036;SDS011;38924;52.134;4.666;2023-07-22T06:45:48;38.17;;;21.80;;
53036;SDS011;38924;52.134;4.666;2023-07-22T06:48:14;31.42;;;20.85;;
53036;SDS011;38924;52.134;4.666;2023-07-22T06:50:39;35.42;;;21.77;;
53036;SDS011;38924;52.134;4.666;2023-07-22T06:53:05;38.92;;;21.48;;
53036;SDS011;38924;52.134;4.666;2023-07-22T06:55:31;39.55;;;21.45;;
53036;SDS011;38924;52.134;4.666;2023-07-22T06:57:56;38.85;;;20.85;;
53036;SDS011;38924;52.134;4.666;2023-07-22T07:00:22;33.25;;;19.98;;
53036;SDS011;38924;52.134;4.666;2023-07-22T07:02:51;40.28;;;21.58;;
53036;SDS011;38924;52.134;4.666;2023-07-22T07:05:17;38.95;;;21.33;;
53036;SDS011;38924;52.134;4.666;2023-07-22T07:07:45;33.80;;;19.98;;
53036;SDS011;38924;52.134;4.666;2023-07-22T07:10:11;31.23;;;20.60;;
53036;SDS011;38924;52.134;4.666;2023-07-22T07:12:36;37.53;;;21.13;;
53036;SDS011;38924;52.134;4.666;2023-07-22T07:15:02;35.78;;;19.20;;
53036;SDS011;38924;52.134;4.666;2023-07-22T07:17:28;34.85;;;19.88;;
53036;SDS011;38924;52.134;4.666;2023-07-22T07:19:53;37.10;;;19.95;;
53036;SDS011;38924;52.134;4.666;2023-07-22T07:22:19;30.75;;;18.30;;
53036;SDS011;38924;52.134;4.666;2023-07-22T07:24:45;33.42;;;19.20;;
53036;SDS011;38924;52.134;4.666;2023-07-22T07:27:11;31.45;;;17.30;;
53036;SDS011;38924;52.134;4.666;2023-07-22T07:29:36;31.67;;;17.38;;
53036;SDS011;38924;52.134;4.666;2023-07-22T07:32:02;32.72;;;16.05;;
53036;SDS011;38924;52.134;4.666;2023-07-22T07:34:28;32.70;;;17.00;;
53036;SDS011;38924;52.134;4.666;2023-07-22T07:36:54;23.25;;;15.73;;
53036;SDS011;38924;52.134;4.666;2023-07-22T07:39:20;26.00;;;16.05;;
53036;SDS011;38924;52.134;4.666;2023-07-22T07:41:46;26.65;;;15.98;;
53036;SDS011;38924;52.134;4.666;2023-07-22T07:44:11;26.33;;;15.40;;
53036;SDS011;38924;52.134;4.666;2023-07-22T07:46:37;29.13;;;15.65;;
53036;SDS011;38924;52.134;4.666;2023-07-22T07:49:03;25.85;;;15.57;;
53036;SDS011;38924;52.134;4.666;2023-07-22T07:51:30;34.95;;;17.85;;
53036;SDS011;38924;52.134;4.666;2023-07-22T07:53:56;33.20;;;16.30;;
53036;SDS011;38924;52.134;4.666;2023-07-22T07:56:22;33.15;;;16.48;;
53036;SDS011;38924;52.134;4.666;2023-07-22T07:58:48;22.63;;;14.88;;
53036;SDS011;38924;52.134;4.666;2023-07-22T08:01:14;18.52;;;12.15;;
53036;SDS011;38924;52.134;4.666;2023-07-22T08:03:41;24.20;;;14.30;;
53036;SDS011;38924;52.134;4.666;2023-07-22T08:06:10;21.17;;;11.98;;
53036;SDS011;38924;52.134;4.666;2023-07-22T08:08:36;24.73;;;12.23;;
53036;SDS011;38924;52.134;4.666;2023-07-22T08:11:02;20.23;;;12.35;;
53036;SDS011;38924;52.134;4.666;2023-07-22T08:13:32;18.25;;;12.15;;
53036;SDS011;38924;52.134;4.666;2023-07-22T08:16:02;19.50;;;12.25;;
53036;SDS011;38924;52.134;4.666;2023-07-22T08:18:29;16.80;;;12.57;;
53036;SDS011;38924;52.134;4.666;2023-07-22T08:20:54;24.05;;;14.18;;
53036;SDS011;38924;52.134;4.666;2023-07-22T08:23:20;24.05;;;14.73;;
53036;SDS011;38924;52.134;4.666;2023-07-22T08:25:46;25.63;;;13.77;;
53036;SDS011;38924;52.134;4.666;2023-07-22T08:28:12;18.58;;;12.15;;
53036;SDS011;38924;52.134;4.666;2023-07-22T08:30:38;19.35;;;14.13;;
53036;SDS011;38924;52.134;4.666;2023-07-22T08:33:06;20.45;;;12.60;;
53036;SDS011;38924;52.134;4.666;2023-07-22T08:35:35;19.10;;;11.77;;
53036;SDS011;38924;52.134;4.666;2023-07-22T08:38:02;17.25;;;11.73;;
53036;SDS011;38924;52.134;4.666;2023-07-22T08:40:32;17.73;;;11.73;;
53036;SDS011;38924;52.134;4.666;2023-07-22T08:42:59;17.67;;;10.80;;
53036;SDS011;38924;52.134;4.666;2023-07-22T08:45:26;17.50;;;9.82;;
53036;SDS011;38924;52.134;4.666;2023-07-22T08:47:53;13.68;;;9.50;;
53036;SDS011;38924;52.134;4.666;2023-07-22T08:50:20;16.20;;;9.43;;
53036;SDS011;38924;52.134;4.666;2023-07-22T08:52:46;15.18;;;8.63;;
53036;SDS011;38924;52.134;4.666;2023-07-22T08:55:13;15.68;;;8.77;;
53036;SDS011;38924;52.134;4.666;2023-07-22T08:57:39;17.48;;;8.07;;
53036;SDS011;38924;52.134;4.666;2023-07-22T09:00:05;13.88;;;7.78;;
53036;SDS011;38924;52.134;4.666;2023-07-22T09:02:34;17.35;;;7.43;;
53036;SDS011;38924;52.134;4.666;2023-07-22T09:05:00;12.50;;;7.72;;
53036;SDS011;38924;52.134;4.666;2023-07-22T09:07:29;17.23;;;7.88;;
53036;SDS011;38924;52.134;4.666;2023-07-22T09:09:56;10.38;;;7.15;;
53036;SDS011;38924;52.134;4.666;2023-07-22T09:12:22;13.40;;;7.43;;
53036;SDS011;38924;52.134;4.666;2023-07-22T09:14:48;15.88;;;7.47;;
53036;SDS011;38924;52.134;4.666;2023-07-22T09:17:15;13.73;;;7.22;;
53036;SDS011;38924;52.134;4.666;2023-07-22T09:19:40;11.88;;;7.65;;
53036;SDS011;38924;52.134;4.666;2023-07-22T09:22:09;14.48;;;7.22;;
53036;SDS011;38924;52.134;4.666;2023-07-22T09:24:34;18.52;;;6.85;;
53036;SDS011;38924;52.134;4.666;2023-07-22T09:27:00;13.45;;;5.97;;
53036;SDS011;38924;52.134;4.666;2023-07-22T09:29:33;9.55;;;5.97;;
53036;SDS011;38924;52.134;4.666;2023-07-22T09:31:59;9.48;;;5.35;;
53036;SDS011;38924;52.134;4.666;2023-07-22T09:34:24;11.32;;;6.38;;
53036;SDS011;38924;52.134;4.666;2023-07-22T09:36:57;10.30;;;4.25;;
53036;SDS011;38924;52.134;4.666;2023-07-22T09:39:25;7.10;;;4.55;;
53036;SDS011;38924;52.134;4.666;2023-07-22T09:41:51;12.88;;;5.55;;
53036;SDS011;38924;52.134;4.666;2023-07-22T09:44:18;9.02;;;4.38;;
53036;SDS011;38924;52.134;4.666;2023-07-22T09:46:47;7.00;;;4.15;;
53036;SDS011;38924;52.134;4.666;2023-07-22T09:49:15;10.77;;;4.57;;
53036;SDS011;38924;52.134;4.666;2023-07-22T09:51:41;5.93;;;4.78;;
53036;SDS011;38924;52.134;4.666;2023-07-22T09:54:07;8.20;;;5.57;;
53036;SDS011;38924;52.134;4.666;2023-07-22T09:56:44;16.40;;;6.50;;
53036;SDS011;38924;52.134;4.666;2023-07-22T09:59:10;12.75;;;5.60;;
53036;SDS011;38924;52.134;4.666;2023-07-22T10:01:38;9.15;;;5.63;;
53036;SDS011;38924;52.134;4.666;2023-07-22T10:04:04;10.50;;;5.40;;
53036;SDS011;38924;52.134;4.666;2023-07-22T10:06:30;6.80;;;4.63;;
53036;SDS011;38924;52.134;4.666;2023-07-22T10:08:58;5.80;;;4.78;;
53036;SDS011;38924;52.134;4.666;2023-07-22T10:11:26;8.40;;;5.78;;
53036;SDS011;38924;52.134;4.666;2023-07-22T10:13:53;7.93;;;6.07;;
53036;SDS011;38924;52.134;4.666;2023-07-22T10:16:20;8.43;;;6.15;;
53036;SDS011;38924;52.134;4.666;2023-07-22T10:18:46;9.60;;;6.15;;
53036;SDS011;38924;52.134;4.666;2023-07-22T10:21:13;10.52;;;6.50;;
53036;SDS011;38924;52.134;4.666;2023-07-22T10:23:39;7.05;;;6.05;;
53036;SDS011;38924;52.134;4.666;2023-07-22T10:26:05;13.43;;;6.50;;
53036;SDS011;38924;52.134;4.666;2023-07-22T10:28:34;8.98;;;7.18;;
53036;SDS011;38924;52.134;4.666;2023-07-22T10:31:00;8.38;;;6.47;;
53036;SDS011;38924;52.134;4.666;2023-07-22T10:33:26;10.18;;;6.35;;
53036;SDS011;38924;52.134;4.666;2023-07-22T10:36:05;10.88;;;6.20;;
53036;SDS011;38924;52.134;4.666;2023-07-22T10:38:31;14.50;;;7.28;;
53036;SDS011;38924;52.134;4.666;2023-07-22T10:40:58;9.88;;;6.78;;
53036;SDS011;38924;52.134;4.666;2023-07-22T10:43:30;9.52;;;8.20;;
53036;SDS011;38924;52.134;4.666;2023-07-22T10:45:57;12.90;;;6.65;;
53036;SDS011;38924;52.134;4.666;2023-07-22T10:48:25;10.60;;;5.63;;
53036;SDS011;38924;52.134;4.666;2023-07-22T10:50:53;9.88;;;5.93;;
53036;SDS011;38924;52.134;4.666;2023-07-22T11:04:08;7.63;;;3.80;;
53036;SDS011;38924;52.134;4.666;2023-07-22T11:06:39;10.40;;;4.20;;
53036;SDS011;38924;52.134;4.666;2023-07-22T11:09:05;5.85;;;3.55;;
53036;SDS011;38924;52.134;4.666;2023-07-22T11:11:35;7.18;;;3.38;;
53036;SDS011;38924;52.134;4.666;2023-07-22T11:14:13;12.85;;;4.47;;
53036;SDS011;38924;52.134;4.666;2023-07-22T11:16:39;6.68;;;3.50;;
53036;SDS011;38924;52.134;4.666;2023-07-22T11:19:05;14.38;;;6.07;;
53036;SDS011;38924;52.134;4.666;2023-07-22T11:21:31;12.60;;;5.32;;
53036;SDS011;38924;52.134;4.666;2023-07-22T11:23:56;8.30;;;5.25;;
53036;SDS011;38924;52.134;4.666;2023-07-22T11:26:22;6.15;;;5.45;;
53036;SDS011;38924;52.134;4.666;2023-07-22T11:28:48;12.40;;;4.00;;
53036;SDS011;38924;52.134;4.666;2023-07-22T11:31:13;9.95;;;4.45;;
53036;SDS011;38924;52.134;4.666;2023-07-22T11:33:40;7.47;;;5.80;;
53036;SDS011;38924;52.134;4.666;2023-07-22T11:36:06;6.97;;;5.75;;
53036;SDS011;38924;52.134;4.666;2023-07-22T11:38:32;11.45;;;5.43;;
53036;SDS011;38924;52.134;4.666;2023-07-22T11:40:58;6.90;;;6.20;;
53036;SDS011;38924;52.134;4.666;2023-07-22T11:43:24;8.93;;;6.22;;
53036;SDS011;38924;52.134;4.666;2023-07-22T11:45:49;6.32;;;5.75;;
53036;SDS011;38924;52.134;4.666;2023-07-22T11:48:15;5.10;;;4.68;;
53036;SDS011;38924;52.134;4.666;2023-07-22T11:50:41;8.63;;;6.65;;
53036;SDS011;38924;52.134;4.666;2023-07-22T11:53:07;7.43;;;5.35;;
53036;SDS011;38924;52.134;4.666;2023-07-22T11:55:36;8.02;;;4.85;;
53036;SDS011;38924;52.134;4.666;2023-07-22T11:58:02;6.53;;;5.60;;
53036;SDS011;38924;52.134;4.666;2023-07-22T12:00:29;10.43;;;5.43;;
53036;SDS011;38924;52.134;4.666;2023-07-22T12:02:54;7.95;;;4.43;;
53036;SDS011;38924;52.134;4.666;2023-07-22T12:05:22;7.80;;;5.32;;
53036;SDS011;38924;52.134;4.666;2023-07-22T12:07:48;5.40;;;4.65;;
53036;SDS011;38924;52.134;4.666;2023-07-22T12:10:15;5.47;;;4.45;;
53036;SDS011;38924;52.134;4.666;2023-07-22T12:12:42;5.10;;;4.70;;
53036;SDS011;38924;52.134;4.666;2023-07-22T12:15:11;5.80;;;4.03;;
53036;SDS011;38924;52.134;4.666;2023-07-22T12:17:47;7.30;;;4.32;;
53036;SDS011;38924;52.134;4.666;2023-07-22T12:20:13;6.68;;;4.75;;
53036;SDS011;38924;52.134;4.666;2023-07-22T12:22:39;5.55;;;4.10;;
53036;SDS011;38924;52.134;4.666;2023-07-22T12:25:05;5.55;;;3.30;;
53036;SDS011;38924;52.134;4.666;2023-07-22T12:27:31;6.07;;;4.38;;
53036;SDS011;38924;52.134;4.666;2023-07-22T12:29:57;5.07;;;3.90;;
53036;SDS011;38924;52.134;4.666;2023-07-22T12:32:22;9.98;;;4.20;;
53036;SDS011;38924;52.134;4.666;2023-07-22T12:34:48;4.75;;;3.25;;
53036;SDS011;38924;52.134;4.666;2023-07-22T12:37:14;5.45;;;2.95;;
53036;SDS011;38924;52.134;4.666;2023-07-22T12:39:39;4.82;;;4.18;;
53036;SDS011;38924;52.134;4.666;2023-07-22T12:42:05;8.32;;;3.92;;
53036;SDS011;38924;52.134;4.666;2023-07-22T12:44:31;8.98;;;4.20;;
53036;SDS011;38924;52.134;4.666;2023-07-22T12:46:56;6.95;;;4.50;;
53036;SDS011;38924;52.134;4.666;2023-07-22T12:49:23;5.35;;;3.50;;
53036;SDS011;38924;52.134;4.666;2023-07-22T12:51:48;6.80;;;3.88;;
53036;SDS011;38924;52.134;4.666;2023-07-22T12:54:14;8.38;;;4.03;;
53036;SDS011;38924;52.134;4.666;2023-07-22T12:56:40;4.20;;;3.28;;
53036;SDS011;38924;52.134;4.666;2023-07-22T12:59:05;10.00;;;4.72;;
53036;SDS011;38924;52.134;4.666;2023-07-22T13:01:34;6.18;;;3.50;;
53036;SDS011;38924;52.134;4.666;2023-07-22T13:04:04;11.85;;;4.20;;
53036;SDS011;38924;52.134;4.666;2023-07-22T13:06:30;6.32;;;3.60;;
53036;SDS011;38924;52.134;4.666;2023-07-22T13:08:56;5.10;;;3.25;;
53036;SDS011;38924;52.134;4.666;2023-07-22T13:11:21;9.07;;;4.80;;
53036;SDS011;38924;52.134;4.666;2023-07-22T13:13:50;7.15;;;3.88;;
53036;SDS011;38924;52.134;4.666;2023-07-22T13:16:16;6.20;;;3.90;;
53036;SDS011;38924;52.134;4.666;2023-07-22T13:18:41;7.55;;;4.88;;
53036;SDS011;38924;52.134;4.666;2023-07-22T13:21:07;4.43;;;3.70;;
53036;SDS011;38924;52.134;4.666;2023-07-22T13:23:33;6.45;;;3.80;;
53036;SDS011;38924;52.134;4.666;2023-07-22T13:25:58;4.57;;;3.90;;
53036;SDS011;38924;52.134;4.666;2023-07-22T13:28:24;7.18;;;3.38;;
53036;SDS011;38924;52.134;4.666;2023-07-22T13:30:50;6.70;;;3.35;;
53036;SDS011;38924;52.134;4.666;2023-07-22T13:33:15;5.57;;;3.55;;
53036;SDS011;38924;52.134;4.666;2023-07-22T13:35:42;6.07;;;4.10;;
53036;SDS011;38924;52.134;4.666;2023-07-22T13:38:07;6.70;;;4.55;;
53036;SDS011;38924;52.134;4.666;2023-07-22T13:40:33;3.92;;;3.55;;
53036;SDS011;38924;52.134;4.666;2023-07-22T13:42:59;5.95;;;4.65;;
53036;SDS011;38924;52.134;4.666;2023-07-22T13:45:25;7.57;;;3.80;;
53036;SDS011;38924;52.134;4.666;2023-07-22T13:47:52;5.18;;;3.83;;
53036;SDS011;38924;52.134;4.666;2023-07-22T13:50:17;6.82;;;3.78;;
53036;SDS011;38924;52.134;4.666;2023-07-22T13:52:43;4.85;;;4.03;;
53036;SDS011;38924;52.134;4.666;2023-07-22T13:55:09;7.63;;;4.93;;
53036;SDS011;38924;52.134;4.666;2023-07-22T13:57:35;7.80;;;4.80;;
53036;SDS011;38924;52.134;4.666;2023-07-22T14:00:01;6.75;;;4.25;;
53036;SDS011;38924;52.134;4.666;2023-07-22T14:02:37;8.23;;;4.00;;
53036;SDS011;38924;52.134;4.666;2023-07-22T14:05:03;7.68;;;4.93;;
53036;SDS011;38924;52.134;4.666;2023-07-22T14:07:31;8.98;;;4.63;;
53036;SDS011;38924;52.134;4.666;2023-07-22T14:09:57;6.05;;;5.55;;
53036;SDS011;38924;52.134;4.666;2023-07-22T14:12:23;12.70;;;6.30;;
53036;SDS011;38924;52.134;4.666;2023-07-22T14:14:48;6.68;;;5.35;;
53036;SDS011;38924;52.134;4.666;2023-07-22T14:17:14;5.53;;;4.93;;
53036;SDS011;38924;52.134;4.666;2023-07-22T14:19:40;6.18;;;4.20;;
53036;SDS011;38924;52.134;4.666;2023-07-22T14:22:05;13.65;;;7.93;;
53036;SDS011;38924;52.134;4.666;2023-07-22T14:24:31;5.25;;;4.55;;
53036;SDS011;38924;52.134;4.666;2023-07-22T14:26:57;7.20;;;5.78;;
53036;SDS011;38924;52.134;4.666;2023-07-22T14:29:23;7.18;;;5.10;;
53036;SDS011;38924;52.134;4.666;2023-07-22T14:31:51;10.70;;;5.05;;
53036;SDS011;38924;52.134;4.666;2023-07-22T14:34:16;7.05;;;4.68;;
53036;SDS011;38924;52.134;4.666;2023-07-22T14:36:42;6.75;;;5.18;;
53036;SDS011;38924;52.134;4.666;2023-07-22T14:39:09;6.60;;;4.85;;